Time;durP1;ratioP1;P1;durP2;ratioP2;P2;SDS_P1;SDS_P2;PMS_P1;PMS_P2;Temp;Humidity;BMP_temperature;BMP_pressure;BME280_temperature;BME280_humidity;BME280_pressure;Samples;Min_cycle;Max_cycle;Signal;HPM_P1;HPM_P2
2023/01/17 00:01:32;;;;;;;;;20.00;17.75;;;;;;;;5090720;27;11513;-80
2023/01/17 00:12:21;;;;;;;;;21.75;19.25;;;;;;;;5099226;28;11452;-81
2023/01/17 00:14:48;;;;;;;;;19.75;18.50;;;;;;;;5114819;28;11436;-80
2023/01/17 00:17:16;;;;;;;;;23.00;21.00;;;;;;;;5112244;28;11489;-80
2023/01/17 01:34:51;;;;;;;;;18.00;16.25;;;;;;;;5107303;27;11624;-80
2023/01/17 01:37:18;;;;;;;;;16.50;13.75;;;;;;;;5107611;27;11532;-80
2023/01/17 01:39:45;;;;;;;;;12.00;11.00;;;;;;;;5111804;27;11530;-80
2023/01/17 01:42:16;;;;;;;;;15.75;12.75;;;;;;;;5108979;27;11500;-80
2023/01/17 01:44:47;;;;;;;;;15.25;15.25;;;;;;;;5111968;27;12266;-79
2023/01/17 01:47:19;;;;;;;;;14.75;14.75;;;;;;;;5108449;27;11550;-79
2023/01/17 01:49:47;;;;;;;;;12.50;10.50;;;;;;;;5103633;28;11560;-78
2023/01/17 01:52:16;;;;;;;;;10.00;10.00;;;;;;;;5103764;27;11483;-79
2023/01/17 01:54:46;;;;;;;;;12.75;10.00;;;;;;;;5102534;28;12260;-79
2023/01/17 01:57:19;;;;;;;;;17.50;12.00;;;;;;;;5086473;28;12173;-79
2023/01/17 01:59:53;;;;;;;;;11.00;10.75;;;;;;;;5105707;27;11493;-79
2023/01/17 02:02:21;;;;;;;;;17.33;12.33;;;;;;;;5087430;28;11381;-79
2023/01/17 02:04:49;;;;;;;;;12.25;11.50;;;;;;;;5085770;28;12362;-78
2023/01/17 02:07:20;;;;;;;;;12.50;12.50;;;;;;;;5084210;28;11482;-79
2023/01/17 02:09:48;;;;;;;;;16.00;12.75;;;;;;;;5103335;28;11440;-78
2023/01/17 02:12:17;;;;;;;;;19.00;15.00;;;;;;;;5105306;28;11425;-79
2023/01/17 02:14:46;;;;;;;;;12.00;12.00;;;;;;;;5106441;28;11497;-78
2023/01/17 02:17:24;;;;;;;;;15.67;12.67;;;;;;;;5107756;28;11455;-78
2023/01/17 02:20:39;;;;;;;;;12.67;12.00;;;;;;;;5086049;28;11419;-78
2023/01/17 02:23:35;;;;;;;;;10.33;10.33;;;;;;;;5105172;28;11489;-79
2023/01/17 02:26:27;;;;;;;;;8.67;8.33;;;;;;;;5106494;27;11445;-79
2023/01/17 02:29:15;;;;;;;;;16.33;13.67;;;;;;;;5104367;28;11477;-79
2023/01/17 02:31:48;;;;;;;;;17.00;12.67;;;;;;;;5109740;27;11483;-79
2023/01/17 02:34:21;;;;;;;;;13.67;13.67;;;;;;;;5104165;27;11504;-79
2023/01/17 02:37:00;;;;;;;;;12.00;12.00;;;;;;;;5111738;27;11461;-78
2023/01/17 02:39:32;;;;;;;;;12.00;12.00;;;;;;;;5101159;27;11484;-79
2023/01/17 02:42:04;;;;;;;;;17.33;16.67;;;;;;;;5108596;27;11530;-79
2023/01/17 02:44:40;;;;;;;;;27.33;16.67;;;;;;;;5103989;27;11480;-79
2023/01/17 02:47:23;;;;;;;;;22.00;18.00;;;;;;;;5104999;28;8833;-79
2023/01/17 02:49:52;;;;;;;;;15.00;14.00;;;;;;;;5113537;27;8968;-79
2023/01/17 02:52:51;;;;;;;;;18.00;18.00;;;;;;;;5104200;28;11550;-79
2023/01/17 02:55:38;;;;;;;;;20.67;17.00;;;;;;;;5109144;27;8972;-79
2023/01/17 02:58:24;;;;;;;;;15.00;15.00;;;;;;;;5101647;27;9683;-79
2023/01/17 03:01:00;;;;;;;;;17.33;17.33;;;;;;;;5113886;27;8802;-79
2023/01/17 03:03:34;;;;;;;;;21.00;17.67;;;;;;;;5111503;27;8810;-79
2023/01/17 03:06:10;;;;;;;;;15.00;15.00;;;;;;;;5095953;28;8872;-79
2023/01/17 03:08:39;;;;;;;;;19.00;16.33;;;;;;;;5115205;27;8853;-78
2023/01/17 03:11:10;;;;;;;;;16.33;15.33;;;;;;;;5114938;28;8848;-78
2023/01/17 03:13:38;;;;;;;;;20.00;18.00;;;;;;;;5118703;27;8853;-79
2023/01/17 03:16:08;;;;;;;;;23.67;22.00;;;;;;;;5098609;27;8852;-79
2023/01/17 03:18:37;;;;;;;;;15.00;15.00;;;;;;;;5119024;27;8850;-80
2023/01/17 03:21:04;;;;;;;;;12.00;12.00;;;;;;;;5123453;27;8860;-79
2023/01/17 03:23:33;;;;;;;;;23.33;18.33;;;;;;;;5117125;27;8829;-79
2023/01/17 03:26:00;;;;;;;;;17.33;15.00;;;;;;;;5124402;27;8956;-78
2023/01/17 03:28:28;;;;;;;;;18.00;18.00;;;;;;;;5096962;27;8872;-79
2023/01/17 03:30:55;;;;;;;;;23.67;21.33;;;;;;;;5116211;27;8789;-79
2023/01/17 03:33:23;;;;;;;;;30.33;26.33;;;;;;;;5118399;28;8838;-79
2023/01/17 03:35:53;;;;;;;;;25.67;25.67;;;;;;;;5117876;28;8876;-80
2023/01/17 03:38:21;;;;;;;;;29.67;26.33;;;;;;;;5116749;28;8862;-79
2023/01/17 03:40:48;;;;;;;;;27.67;25.33;;;;;;;;5118292;28;8841;-79
2023/01/17 03:43:16;;;;;;;;;32.00;25.33;;;;;;;;5113185;28;8818;-80
2023/01/17 03:45:43;;;;;;;;;19.33;17.00;;;;;;;;5118067;27;9599;-77
2023/01/17 03:48:11;;;;;;;;;31.33;27.67;;;;;;;;5115398;28;8863;-79
2023/01/17 03:50:38;;;;;;;;;31.67;26.00;;;;;;;;5120665;28;8861;-79
2023/01/17 03:53:08;;;;;;;;;29.00;25.00;;;;;;;;5117739;27;8837;-80
2023/01/17 03:55:35;;;;;;;;;23.00;19.33;;;;;;;;5114776;27;8841;-80
2023/01/17 03:58:03;;;;;;;;;22.33;19.67;;;;;;;;5118638;27;8864;-79
2023/01/17 04:00:31;;;;;;;;;27.67;25.33;;;;;;;;5117587;27;8886;-80
2023/01/17 04:02:59;;;;;;;;;28.00;26.67;;;;;;;;5117083;28;8947;-80
2023/01/17 04:05:26;;;;;;;;;32.67;27.00;;;;;;;;5117119;27;8857;-80
2023/01/17 04:07:54;;;;;;;;;29.33;26.00;;;;;;;;5118515;27;9580;-79
2023/01/17 04:10:23;;;;;;;;;27.33;20.33;;;;;;;;5107321;28;8868;-81
2023/01/17 04:12:50;;;;;;;;;14.67;12.33;;;;;;;;5102309;28;8838;-81
2023/01/17 04:15:18;;;;;;;;;32.00;22.33;;;;;;;;5111578;28;8848;-80
2023/01/17 04:17:46;;;;;;;;;19.67;16.33;;;;;;;;5115603;28;8877;-80
2023/01/17 04:20:18;;;;;;;;;24.67;20.00;;;;;;;;5114265;28;9300;-79
2023/01/17 04:22:46;;;;;;;;;23.00;16.00;;;;;;;;5112771;27;9685;-80
2023/01/17 04:25:13;;;;;;;;;19.00;19.00;;;;;;;;5110651;28;8840;-80
2023/01/17 04:27:43;;;;;;;;;27.67;22.33;;;;;;;;5111516;28;8853;-79
2023/01/17 04:30:11;;;;;;;;;4.00;1.33;;;;;;;;5111714;28;8876;-79
2023/01/17 04:32:39;;;;;;;;;20.67;20.67;;;;;;;;5121323;27;9647;-80
2023/01/17 04:35:08;;;;;;;;;37.67;28.67;;;;;;;;5102230;27;8854;-81
2023/01/17 04:37:35;;;;;;;;;28.67;28.67;;;;;;;;5135471;27;8854;-80
2023/01/17 04:40:03;;;;;;;;;27.00;25.67;;;;;;;;5118645;27;8847;-81
2023/01/17 04:42:31;;;;;;;;;23.00;20.00;;;;;;;;5115472;27;8848;-80
2023/01/17 04:45:00;;;;;;;;;28.00;25.00;;;;;;;;5113938;27;8855;-80
2023/01/17 04:47:28;;;;;;;;;22.00;19.67;;;;;;;;5113025;27;8826;-80
2023/01/17 04:49:55;;;;;;;;;24.00;24.00;;;;;;;;5118605;27;9014;-80
2023/01/17 04:52:24;;;;;;;;;32.00;26.00;;;;;;;;5119755;28;8880;-82
2023/01/17 04:54:52;;;;;;;;;26.67;22.33;;;;;;;;5120085;27;8878;-79
2023/01/17 04:57:20;;;;;;;;;33.33;32.00;;;;;;;;5117453;27;8829;-79
2023/01/17 04:59:48;;;;;;;;;34.67;33.33;;;;;;;;5116181;27;8823;-78
2023/01/17 05:02:16;;;;;;;;;25.67;25.67;;;;;;;;5117963;28;8811;-79
2023/01/17 05:04:44;;;;;;;;;32.67;27.33;;;;;;;;5120598;27;8968;-78
2023/01/17 05:07:11;;;;;;;;;33.33;31.67;;;;;;;;5121782;27;8818;-79
2023/01/17 05:09:39;;;;;;;;;34.67;31.67;;;;;;;;5121027;27;8847;-80
2023/01/17 05:12:06;;;;;;;;;21.67;21.67;;;;;;;;5118317;28;8854;-80
2023/01/17 05:14:34;;;;;;;;;27.67;24.67;;;;;;;;5116335;27;9566;-80
2023/01/17 05:17:01;;;;;;;;;34.00;25.67;;;;;;;;5097142;28;8947;-79
2023/01/17 05:19:30;;;;;;;;;29.33;24.67;;;;;;;;5091036;28;8836;-80
2023/01/17 05:22:02;;;;;;;;;26.33;25.67;;;;;;;;5119047;27;8990;-79
2023/01/17 05:24:31;;;;;;;;;33.00;25.33;;;;;;;;5096293;28;8970;-79
2023/01/17 05:27:01;;;;;;;;;34.33;32.33;;;;;;;;5115996;27;8889;-79
2023/01/17 05:29:30;;;;;;;;;22.33;22.33;;;;;;;;5116412;27;8870;-82
2023/01/17 05:31:57;;;;;;;;;34.00;30.33;;;;;;;;5107218;27;8793;-82
2023/01/17 05:34:25;;;;;;;;;27.67;27.33;;;;;;;;5104450;27;8891;-81
2023/01/17 05:36:57;;;;;;;;;20.33;20.33;;;;;;;;5112725;27;8952;-80
2023/01/17 05:39:25;;;;;;;;;26.00;23.33;;;;;;;;5110769;27;8875;-81
2023/01/17 05:41:52;;;;;;;;;25.00;19.67;;;;;;;;5099813;28;8828;-79
2023/01/17 05:44:21;;;;;;;;;25.00;22.67;;;;;;;;5122582;27;8830;-79
2023/01/17 05:46:48;;;;;;;;;31.33;24.67;;;;;;;;5120049;27;8908;-79
2023/01/17 05:49:16;;;;;;;;;27.67;25.33;;;;;;;;5124313;27;8981;-79
2023/01/17 05:51:43;;;;;;;;;27.67;25.67;;;;;;;;5123340;27;8834;-78
2023/01/17 05:54:12;;;;;;;;;31.67;23.33;;;;;;;;5101237;28;8829;-80
2023/01/17 05:56:40;;;;;;;;;31.33;27.33;;;;;;;;5101110;28;10361;-80
2023/01/17 05:59:07;;;;;;;;;23.67;16.67;;;;;;;;5109765;27;8834;-79
2023/01/17 06:01:38;;;;;;;;;25.67;25.67;;;;;;;;5125226;27;8782;-80
2023/01/17 06:04:09;;;;;;;;;44.33;39.33;;;;;;;;5118142;27;8864;-79
2023/01/17 06:06:36;;;;;;;;;26.67;24.00;;;;;;;;5117773;27;8817;-80
2023/01/17 06:09:04;;;;;;;;;25.33;25.33;;;;;;;;5122955;27;9604;-80
2023/01/17 06:11:33;;;;;;;;;23.33;22.67;;;;;;;;5097141;27;8872;-80
2023/01/17 06:14:03;;;;;;;;;26.00;22.33;;;;;;;;5115458;27;8869;-80
2023/01/17 06:16:31;;;;;;;;;25.67;25.67;;;;;;;;5112293;27;8907;-78
2023/01/17 06:18:59;;;;;;;;;31.00;22.00;;;;;;;;5099947;28;8856;-81
2023/01/17 06:21:26;;;;;;;;;20.67;19.33;;;;;;;;5102307;27;8860;-81
2023/01/17 06:24:08;;;;;;;;;22.33;22.33;;;;;;;;5109559;27;8854;-82
2023/01/17 06:26:40;;;;;;;;;34.33;24.33;;;;;;;;5086674;28;8870;-82
2023/01/17 06:29:08;;;;;;;;;23.67;19.67;;;;;;;;5103355;27;9271;-81
2023/01/17 06:31:43;;;;;;;;;22.00;22.00;;;;;;;;5144318;27;8813;-79
2023/01/17 06:34:11;;;;;;;;;30.67;28.33;;;;;;;;5112221;27;8842;-73
2023/01/17 06:36:46;;;;;;;;;32.00;27.67;;;;;;;;5107894;27;8852;-73
2023/01/17 06:39:14;;;;;;;;;22.00;19.33;;;;;;;;5103124;27;8964;-74
2023/01/17 06:41:45;;;;;;;;;23.33;23.33;;;;;;;;5098479;28;8854;-75
2023/01/17 06:44:16;;;;;;;;;27.67;22.33;;;;;;;;5111866;27;8860;-79
2023/01/17 06:46:53;;;;;;;;;23.33;23.33;;;;;;;;5104895;27;8887;-77
2023/01/17 06:49:23;;;;;;;;;28.67;28.67;;;;;;;;5104980;27;8857;-76
2023/01/17 06:51:51;;;;;;;;;29.33;24.67;;;;;;;;5097089;28;9694;-75
2023/01/17 06:54:28;;;;;;;;;20.00;18.67;;;;;;;;5099698;27;8834;-75
2023/01/17 06:57:02;;;;;;;;;24.00;23.00;;;;;;;;5095808;28;8914;-76
2023/01/17 06:59:29;;;;;;;;;22.67;19.67;;;;;;;;5097804;28;8852;-75
2023/01/17 07:01:57;;;;;;;;;21.67;18.00;;;;;;;;5106030;27;8808;-76
2023/01/17 07:04:24;;;;;;;;;25.33;21.33;;;;;;;;5098091;28;8856;-76
2023/01/17 07:06:52;;;;;;;;;27.67;19.67;;;;;;;;5104877;27;8845;-76
2023/01/17 07:09:19;;;;;;;;;25.33;22.67;;;;;;;;5104890;27;8872;-72
2023/01/17 07:11:47;;;;;;;;;32.67;21.67;;;;;;;;5101394;28;8845;-73
2023/01/17 07:14:24;;;;;;;;;23.33;21.00;;;;;;;;5107783;27;8830;-74
2023/01/17 07:16:52;;;;;;;;;27.67;27.67;;;;;;;;5097201;27;8898;-72
2023/01/17 07:19:19;;;;;;;;;25.00;22.00;;;;;;;;5100240;27;8838;-72
2023/01/17 07:21:47;;;;;;;;;25.33;19.33;;;;;;;;5104063;27;8842;-72
2023/01/17 07:24:14;;;;;;;;;16.67;15.00;;;;;;;;5108953;27;9600;-72
2023/01/17 07:26:42;;;;;;;;;20.33;19.67;;;;;;;;5104317;27;8850;-72
2023/01/17 07:29:10;;;;;;;;;22.67;17.67;;;;;;;;5104948;27;8842;-73
2023/01/17 07:31:39;;;;;;;;;19.33;17.33;;;;;;;;5096392;28;8794;-72
2023/01/17 07:34:07;;;;;;;;;15.67;15.00;;;;;;;;5100047;27;8841;-72
2023/01/17 07:36:34;;;;;;;;;21.00;21.00;;;;;;;;5104551;27;8845;-73
2023/01/17 07:39:01;;;;;;;;;13.00;13.00;;;;;;;;5101807;27;8850;-72
2023/01/17 07:41:33;;;;;;;;;21.67;16.67;;;;;;;;5106061;28;8840;-72
2023/01/17 07:44:00;;;;;;;;;26.33;19.67;;;;;;;;5080649;28;8821;-73
2023/01/17 07:46:28;;;;;;;;;24.00;20.67;;;;;;;;5104929;27;8877;-73
2023/01/17 07:48:57;;;;;;;;;37.33;27.67;;;;;;;;5106304;28;8844;-73
2023/01/17 07:51:24;;;;;;;;;27.67;22.00;;;;;;;;5132640;27;8853;-73
2023/01/17 07:53:52;;;;;;;;;22.67;22.33;;;;;;;;5103729;27;9567;-73
2023/01/17 07:56:19;;;;;;;;;30.00;22.33;;;;;;;;5101440;28;9655;-73
2023/01/17 07:58:47;;;;;;;;;39.00;29.33;;;;;;;;5082430;27;8842;-73
2023/01/17 08:01:15;;;;;;;;;38.00;28.33;;;;;;;;5099837;27;9701;-73
2023/01/17 08:03:43;;;;;;;;;26.67;19.33;;;;;;;;5105772;27;8842;-72
2023/01/17 08:06:17;;;;;;;;;27.67;23.33;;;;;;;;5108422;27;8915;-71
2023/01/17 08:08:45;;;;;;;;;30.00;26.33;;;;;;;;5107401;27;8887;-71
2023/01/17 08:11:12;;;;;;;;;38.67;27.00;;;;;;;;5106193;27;8822;-71
2023/01/17 08:13:40;;;;;;;;;24.67;23.00;;;;;;;;5096700;27;8863;-71
2023/01/17 08:16:09;;;;;;;;;35.67;27.33;;;;;;;;5102088;27;9658;-75
2023/01/17 08:18:36;;;;;;;;;42.33;35.00;;;;;;;;5115464;27;8964;-72
2023/01/17 08:21:03;;;;;;;;;21.67;21.67;;;;;;;;5106723;27;8986;-72
2023/01/17 08:23:32;;;;;;;;;27.00;25.67;;;;;;;;5104162;27;8847;-70
2023/01/17 08:26:03;;;;;;;;;25.67;23.00;;;;;;;;5085986;28;8858;-70
2023/01/17 08:28:30;;;;;;;;;25.33;18.67;;;;;;;;5107645;27;8869;-69
2023/01/17 08:30:58;;;;;;;;;22.33;16.67;;;;;;;;5106693;27;8919;-69
2023/01/17 08:33:25;;;;;;;;;14.33;14.00;;;;;;;;5087159;27;8872;-70
2023/01/17 08:35:55;;;;;;;;;30.67;24.33;;;;;;;;5105578;27;9293;-70
2023/01/17 08:38:23;;;;;;;;;15.67;14.00;;;;;;;;5104033;27;8838;-70
2023/01/17 08:40:52;;;;;;;;;22.67;19.33;;;;;;;;5099778;28;8861;-72
2023/01/17 08:43:19;;;;;;;;;21.33;16.33;;;;;;;;5104209;27;8831;-70
2023/01/17 08:45:47;;;;;;;;;24.00;19.00;;;;;;;;5108636;27;12306;-70
2023/01/17 08:48:14;;;;;;;;;24.33;22.33;;;;;;;;5107034;27;8841;-70
2023/01/17 08:50:41;;;;;;;;;30.33;26.33;;;;;;;;5105573;27;8861;-70
2023/01/17 08:53:09;;;;;;;;;26.67;21.00;;;;;;;;5104713;27;8893;-70
2023/01/17 08:55:39;;;;;;;;;26.67;21.67;;;;;;;;5101917;28;8836;-70
2023/01/17 08:58:08;;;;;;;;;19.33;19.33;;;;;;;;5106890;27;9615;-70
2023/01/17 09:00:36;;;;;;;;;16.33;16.00;;;;;;;;5133020;27;11464;-70
2023/01/17 09:03:03;;;;;;;;;19.33;17.67;;;;;;;;5084900;27;11544;-70
2023/01/17 09:05:30;;;;;;;;;8.00;8.00;;;;;;;;5107927;27;11481;-72
2023/01/17 09:07:57;;;;;;;;;14.00;11.00;;;;;;;;5108545;27;11466;-70
2023/01/17 09:10:25;;;;;;;;;17.67;14.33;;;;;;;;5097624;28;11521;-70
2023/01/17 09:12:53;;;;;;;;;12.33;10.33;;;;;;;;5132522;27;11596;-71
2023/01/17 09:15:22;;;;;;;;;20.00;20.00;;;;;;;;5101864;28;11523;-70
2023/01/17 09:17:49;;;;;;;;;12.67;11.00;;;;;;;;5137235;27;8861;-70
2023/01/17 09:20:16;;;;;;;;;15.67;11.67;;;;;;;;5102803;28;11446;-70
2023/01/17 09:22:43;;;;;;;;;18.00;12.00;;;;;;;;5103429;27;11587;-70
2023/01/17 09:25:11;;;;;;;;;13.33;13.33;;;;;;;;5104270;27;12294;-71
2023/01/17 09:27:38;;;;;;;;;15.33;12.67;;;;;;;;5100928;28;11529;-70
2023/01/17 09:30:07;;;;;;;;;11.33;7.33;;;;;;;;5104754;27;11522;-70
2023/01/17 09:32:35;;;;;;;;;15.00;12.67;;;;;;;;5103112;27;11510;-71
2023/01/17 09:35:04;;;;;;;;;16.67;14.33;;;;;;;;5105273;27;11538;-70
2023/01/17 09:37:31;;;;;;;;;18.33;15.00;;;;;;;;5107576;27;11479;-70
2023/01/17 09:39:58;;;;;;;;;16.00;13.33;;;;;;;;5102934;27;11492;-70
2023/01/17 09:42:33;;;;;;;;;11.00;8.67;;;;;;;;5101444;27;11467;-71
2023/01/17 09:45:01;;;;;;;;;13.67;12.00;;;;;;;;5104133;27;11532;-70
2023/01/17 09:47:38;;;;;;;;;20.00;15.67;;;;;;;;5110094;27;11594;-70
2023/01/17 09:50:19;;;;;;;;;16.00;12.67;;;;;;;;5104749;27;12354;-70
2023/01/17 09:52:46;;;;;;;;;14.33;13.33;;;;;;;;5103552;27;11552;-71
2023/01/17 09:55:15;;;;;;;;;16.00;14.00;;;;;;;;5102584;27;12370;-70
2023/01/17 09:57:50;;;;;;;;;12.67;12.67;;;;;;;;5098944;28;11511;-71
2023/01/17 10:00:37;;;;;;;;;9.00;9.00;;;;;;;;5104260;27;11652;-71
2023/01/17 10:03:30;;;;;;;;;17.00;16.33;;;;;;;;5099955;28;11523;-71
2023/01/17 10:06:09;;;;;;;;;8.67;6.33;;;;;;;;5101333;28;12296;-70
2023/01/17 10:08:55;;;;;;;;;12.25;12.25;;;;;;;;5103879;27;11475;-72
2023/01/17 10:11:36;;;;;;;;;16.67;15.33;;;;;;;;5097219;28;12354;-72
2023/01/17 10:14:17;;;;;;;;;20.00;13.33;;;;;;;;5100759;27;11644;-71
2023/01/17 10:16:52;;;;;;;;;9.67;9.67;;;;;;;;5109675;27;11552;-73
2023/01/17 10:19:36;;;;;;;;;21.50;19.25;;;;;;;;5103735;27;11524;-72
2023/01/17 10:22:20;;;;;;;;;17.33;17.33;;;;;;;;5102500;27;11531;-73
2023/01/17 10:25:02;;;;;;;;;20.67;15.67;;;;;;;;5100875;28;12400;-73
2023/01/17 10:27:32;;;;;;;;;17.00;12.50;;;;;;;;5106562;27;11527;-72
2023/01/17 10:30:01;;;;;;;;;14.75;11.75;;;;;;;;5100197;27;11535;-72
2023/01/17 10:32:31;;;;;;;;;12.25;10.00;;;;;;;;5109234;27;11470;-72
2023/01/17 10:35:03;;;;;;;;;13.25;12.50;;;;;;;;5103733;27;11475;-73
2023/01/17 10:37:39;;;;;;;;;17.25;13.75;;;;;;;;5101609;27;11508;-71
2023/01/17 10:40:16;;;;;;;;;13.50;13.50;;;;;;;;5101136;27;11610;-72
2023/01/17 10:42:49;;;;;;;;;16.00;10.75;;;;;;;;5105755;27;12325;-71
2023/01/17 10:45:24;;;;;;;;;19.75;12.00;;;;;;;;5098214;28;11517;-71
2023/01/17 10:47:58;;;;;;;;;19.50;11.25;;;;;;;;5100485;27;11539;-71
2023/01/17 10:50:28;;;;;;;;;17.00;13.75;;;;;;;;5101766;28;11513;-71
2023/01/17 10:53:02;;;;;;;;;17.50;14.25;;;;;;;;5105352;27;11505;-72
2023/01/17 10:55:37;;;;;;;;;24.50;16.00;;;;;;;;5099901;27;11588;-71
2023/01/17 10:58:07;;;;;;;;;24.00;17.75;;;;;;;;5103535;27;12385;-72
2023/01/17 11:00:44;;;;;;;;;21.25;18.25;;;;;;;;5109842;27;11473;-73
2023/01/17 11:03:12;;;;;;;;;16.00;15.75;;;;;;;;5106991;27;11562;-73
2023/01/17 11:05:42;;;;;;;;;14.50;13.00;;;;;;;;5101515;27;11560;-73
2023/01/17 11:08:10;;;;;;;;;13.00;13.00;;;;;;;;5103343;28;11516;-73
2023/01/17 11:10:43;;;;;;;;;18.50;15.00;;;;;;;;5101948;27;11572;-71
2023/01/17 11:13:35;;;;;;;;;17.25;13.50;;;;;;;;5101729;27;12612;-71
2023/01/17 11:16:05;;;;;;;;;14.25;13.00;;;;;;;;5082823;27;12354;-72
2023/01/17 11:18:34;;;;;;;;;12.75;11.00;;;;;;;;5102963;27;11530;-72
2023/01/17 11:21:14;;;;;;;;;14.25;13.50;;;;;;;;5105887;28;11487;-73
2023/01/17 11:23:43;;;;;;;;;17.75;12.50;;;;;;;;5104578;27;11534;-72
2023/01/17 11:26:13;;;;;;;;;8.50;8.50;;;;;;;;5104731;27;11507;-72
2023/01/17 11:28:41;;;;;;;;;10.50;10.25;;;;;;;;5099256;28;11450;-73
2023/01/17 11:31:24;;;;;;;;;12.50;11.50;;;;;;;;5097567;28;11458;-73
2023/01/17 11:34:06;;;;;;;;;11.00;11.00;;;;;;;;5102499;27;11431;-72
2023/01/17 11:36:35;;;;;;;;;14.75;11.50;;;;;;;;5107055;28;11514;-72
2023/01/17 11:39:04;;;;;;;;;16.75;12.50;;;;;;;;5109633;27;11499;-73
2023/01/17 11:41:36;;;;;;;;;18.75;13.25;;;;;;;;5108368;27;11532;-73
2023/01/17 11:44:21;;;;;;;;;18.00;11.75;;;;;;;;5109030;27;11501;-72
2023/01/17 11:46:49;;;;;;;;;11.25;11.25;;;;;;;;5106043;27;11566;-73
2023/01/17 11:49:24;;;;;;;;;17.00;13.50;;;;;;;;5110390;27;11535;-70
2023/01/17 11:51:55;;;;;;;;;19.50;14.50;;;;;;;;5104826;28;11514;-70
2023/01/17 11:54:27;;;;;;;;;14.00;13.00;;;;;;;;5104826;28;11673;-70
2023/01/17 11:56:58;;;;;;;;;22.00;14.50;;;;;;;;5104214;27;11529;-70
2023/01/17 11:59:28;;;;;;;;;22.75;14.50;;;;;;;;5106849;27;11509;-70
2023/01/17 12:02:33;;;;;;;;;14.25;14.25;;;;;;;;5104785;27;11497;-74
2023/01/17 12:05:24;;;;;;;;;14.75;13.00;;;;;;;;5104936;27;11494;-73
2023/01/17 12:08:03;;;;;;;;;22.75;17.75;;;;;;;;5095764;27;12239;-73
2023/01/17 12:10:35;;;;;;;;;17.75;17.00;;;;;;;;5105809;27;11540;-73
2023/01/17 12:18:55;;;;;;;;;22.25;21.00;;;;;;;;5104950;27;11462;-70
2023/01/17 12:21:34;;;;;;;;;17.25;17.25;;;;;;;;5109224;27;11530;-71
2023/01/17 12:24:29;;;;;;;;;17.75;16.00;;;;;;;;5107088;27;11516;-71
2023/01/17 12:27:04;;;;;;;;;21.00;14.50;;;;;;;;5102126;28;12372;-71
2023/01/17 12:29:46;;;;;;;;;21.00;16.50;;;;;;;;5085075;27;11532;-71
2023/01/17 12:32:33;;;;;;;;;24.00;16.00;;;;;;;;5105582;27;11491;-71
2023/01/17 12:35:06;;;;;;;;;17.50;13.50;;;;;;;;5107610;27;11484;-71
2023/01/17 12:37:37;;;;;;;;;12.75;10.25;;;;;;;;5101346;28;11529;-71
2023/01/17 12:40:17;;;;;;;;;22.25;15.25;;;;;;;;5104962;27;11679;-71
2023/01/17 12:42:49;;;;;;;;;15.75;15.75;;;;;;;;5103414;27;11543;-71
2023/01/17 12:45:23;;;;;;;;;4.50;4.50;;;;;;;;5108724;27;11535;-71
2023/01/17 12:47:59;;;;;;;;;11.25;11.25;;;;;;;;5104803;27;13255;-71
2023/01/17 12:50:31;;;;;;;;;19.25;13.50;;;;;;;;5108073;27;11457;-71
2023/01/17 12:53:03;;;;;;;;;10.75;10.75;;;;;;;;5107473;27;11564;-72
2023/01/17 12:55:39;;;;;;;;;20.25;9.25;;;;;;;;5098566;27;11575;-75
2023/01/17 12:58:12;;;;;;;;;12.50;9.50;;;;;;;;5107501;27;11487;-74
2023/01/17 13:00:40;;;;;;;;;9.75;9.00;;;;;;;;5103697;27;11480;-73
2023/01/17 13:03:15;;;;;;;;;6.50;6.50;;;;;;;;5102727;28;11450;-74
2023/01/17 13:05:47;;;;;;;;;14.25;10.00;;;;;;;;5107769;27;12057;-74
2023/01/17 13:08:22;;;;;;;;;9.00;9.00;;;;;;;;5103493;27;11486;-73
2023/01/17 13:10:55;;;;;;;;;11.25;10.50;;;;;;;;5104930;27;12322;-73
2023/01/17 13:13:24;;;;;;;;;10.75;10.75;;;;;;;;5105013;27;11492;-71
2023/01/17 13:15:54;;;;;;;;;9.00;9.00;;;;;;;;5107520;27;11508;-71
2023/01/17 13:18:24;;;;;;;;;6.00;6.00;;;;;;;;5106837;27;11493;-72
2023/01/17 13:21:15;;;;;;;;;7.25;7.25;;;;;;;;5106583;27;11544;-71
2023/01/17 13:24:08;;;;;;;;;10.25;7.50;;;;;;;;5103452;27;11476;-71
2023/01/17 13:26:48;;;;;;;;;14.25;10.50;;;;;;;;5104162;27;11527;-71
2023/01/17 13:29:24;;;;;;;;;12.00;11.00;;;;;;;;5102884;27;11493;-72
2023/01/17 13:31:59;;;;;;;;;12.25;10.00;;;;;;;;5108628;27;11557;-71
2023/01/17 13:34:42;;;;;;;;;8.00;8.00;;;;;;;;5098951;27;11532;-71
2023/01/17 13:37:34;;;;;;;;;12.00;8.00;;;;;;;;5078848;28;11506;-72
2023/01/17 13:40:32;;;;;;;;;12.75;10.25;;;;;;;;5058259;27;11963;-72
2023/01/17 13:43:02;;;;;;;;;5.00;5.00;;;;;;;;5102359;27;11524;-73
2023/01/17 13:45:31;;;;;;;;;10.00;8.75;;;;;;;;5105468;27;11472;-71
2023/01/17 13:48:26;;;;;;;;;5.50;5.50;;;;;;;;5102828;27;12283;-71
2023/01/17 13:50:55;;;;;;;;;6.25;6.25;;;;;;;;5085983;27;12348;-71
2023/01/17 13:53:55;;;;;;;;;6.00;5.25;;;;;;;;5102879;27;11559;-72
2023/01/17 13:56:29;;;;;;;;;9.25;6.00;;;;;;;;5093312;27;11512;-71
2023/01/17 13:59:03;;;;;;;;;9.75;7.00;;;;;;;;5110202;27;11462;-71
2023/01/17 14:01:52;;;;;;;;;1.75;1.00;;;;;;;;5103623;27;11389;-71
2023/01/17 14:04:20;;;;;;;;;6.50;6.50;;;;;;;;5104573;27;11435;-71
2023/01/17 14:06:49;;;;;;;;;11.75;10.50;;;;;;;;5106221;27;11473;-71
2023/01/17 14:09:24;;;;;;;;;5.00;5.00;;;;;;;;5104371;27;11520;-71
2023/01/17 14:12:03;;;;;;;;;7.00;7.00;;;;;;;;5106415;27;11487;-71
2023/01/17 14:14:48;;;;;;;;;5.75;5.75;;;;;;;;5097895;28;11510;-71
2023/01/17 14:17:57;;;;;;;;;5.25;5.00;;;;;;;;5102141;27;11487;-71
2023/01/17 14:21:04;;;;;;;;;9.75;8.00;;;;;;;;5052354;28;11634;-71
2023/01/17 14:24:05;;;;;;;;;4.50;2.25;;;;;;;;5090049;27;11470;-71
2023/01/17 14:26:54;;;;;;;;;7.00;6.00;;;;;;;;5050708;28;11606;-71
2023/01/17 14:29:48;;;;;;;;;9.00;6.50;;;;;;;;5098374;27;12291;-72
2023/01/17 14:32:17;;;;;;;;;7.00;7.00;;;;;;;;5105611;27;11439;-72
2023/01/17 14:34:47;;;;;;;;;9.75;9.75;;;;;;;;5106677;27;11488;-73
2023/01/17 14:37:28;;;;;;;;;11.25;10.25;;;;;;;;5107625;27;11475;-72
2023/01/17 14:39:55;;;;;;;;;14.75;11.00;;;;;;;;5101416;27;11612;-71
2023/01/17 14:42:24;;;;;;;;;13.00;11.00;;;;;;;;5100606;27;11510;-71
2023/01/17 14:45:02;;;;;;;;;10.25;9.25;;;;;;;;5106016;27;11565;-71
2023/01/17 14:47:33;;;;;;;;;9.50;7.25;;;;;;;;5102836;27;11486;-71
2023/01/17 14:50:22;;;;;;;;;4.50;4.50;;;;;;;;5105170;27;11533;-71
2023/01/17 14:53:06;;;;;;;;;7.00;7.00;;;;;;;;5102853;27;12263;-72
2023/01/17 14:55:33;;;;;;;;;9.00;9.00;;;;;;;;5102579;27;11497;-71
2023/01/17 14:58:00;;;;;;;;;11.50;3.00;;;;;;;;5102230;27;11548;-71
2023/01/17 15:00:32;;;;;;;;;10.00;9.75;;;;;;;;5107393;27;11401;-71
2023/01/17 15:03:01;;;;;;;;;7.00;7.00;;;;;;;;5103988;27;11523;-71
2023/01/17 15:05:30;;;;;;;;;6.00;6.00;;;;;;;;5107150;27;11582;-71
2023/01/17 15:07:58;;;;;;;;;10.00;6.00;;;;;;;;5102583;27;11445;-72
2023/01/17 15:10:29;;;;;;;;;7.50;7.50;;;;;;;;5105862;27;11506;-72
2023/01/17 15:12:58;;;;;;;;;14.75;10.00;;;;;;;;5105755;27;11452;-71
2023/01/17 15:15:41;;;;;;;;;9.00;9.00;;;;;;;;5106570;27;11507;-72
2023/01/17 15:18:10;;;;;;;;;9.00;9.00;;;;;;;;5105675;27;11471;-72
2023/01/17 15:20:37;;;;;;;;;8.50;8.50;;;;;;;;5102520;27;11482;-72
2023/01/17 15:23:05;;;;;;;;;12.75;11.50;;;;;;;;5101137;27;11462;-72
2023/01/17 15:25:33;;;;;;;;;12.75;9.00;;;;;;;;5103781;27;11476;-72
2023/01/17 15:28:00;;;;;;;;;9.00;9.00;;;;;;;;5107389;27;11442;-72
2023/01/17 15:30:27;;;;;;;;;11.00;10.00;;;;;;;;5094645;27;11429;-71
2023/01/17 15:32:56;;;;;;;;;11.75;10.25;;;;;;;;5104138;28;12278;-71
2023/01/17 15:35:24;;;;;;;;;18.50;14.00;;;;;;;;5100377;27;11506;-72
2023/01/17 15:37:54;;;;;;;;;15.50;11.00;;;;;;;;5114093;28;11512;-71
2023/01/17 15:40:23;;;;;;;;;12.75;11.75;;;;;;;;5102273;28;11505;-71
2023/01/17 15:42:53;;;;;;;;;10.50;9.75;;;;;;;;5098054;28;11757;-73
2023/01/17 15:45:23;;;;;;;;;9.00;9.00;;;;;;;;5105335;27;11560;-73
2023/01/17 15:47:51;;;;;;;;;1.25;1.25;;;;;;;;5098588;28;11541;-72
2023/01/17 15:50:29;;;;;;;;;6.00;6.00;;;;;;;;5100051;27;11625;-71
2023/01/17 15:52:59;;;;;;;;;11.00;9.00;;;;;;;;5101899;28;11473;-71
2023/01/17 15:55:31;;;;;;;;;11.00;6.25;;;;;;;;5105622;27;11531;-73
2023/01/17 15:57:59;;;;;;;;;11.00;9.75;;;;;;;;5101986;27;11486;-72
2023/01/17 16:00:35;;;;;;;;;13.75;6.50;;;;;;;;5102811;27;11406;-71
2023/01/17 16:03:18;;;;;;;;;9.25;9.25;;;;;;;;5098646;27;12321;-71
2023/01/17 16:05:48;;;;;;;;;6.00;6.00;;;;;;;;5102268;27;11573;-74
2023/01/17 16:08:31;;;;;;;;;5.75;5.75;;;;;;;;5098814;27;12376;-72
2023/01/17 16:11:05;;;;;;;;;10.75;10.75;;;;;;;;5102212;28;11466;-72
2023/01/17 16:13:34;;;;;;;;;7.50;6.50;;;;;;;;5101863;28;11626;-72
2023/01/17 16:16:27;;;;;;;;;3.00;3.00;;;;;;;;5098201;28;11529;-74
2023/01/17 16:19:02;;;;;;;;;9.50;5.25;;;;;;;;5103252;28;11492;-75
2023/01/17 16:21:32;;;;;;;;;13.75;11.50;;;;;;;;5099414;27;11495;-75
2023/01/17 16:24:01;;;;;;;;;9.25;7.00;;;;;;;;5101265;28;11506;-75
2023/01/17 16:26:29;;;;;;;;;8.00;8.00;;;;;;;;5099328;28;11602;-73